sensor_id;sensor_type;location;lat;lon;timestamp;pressure;altitude;pressure_sealevel;temperature;humidity
44697;BME280;57264;47.480;19.354;2024-03-29T00:02:22;98019.53;;;6.43;82.79
44697;BME280;57264;47.480;19.354;2024-03-29T00:04:48;98016.00;;;6.46;82.79
44697;BME280;57264;47.480;19.354;2024-03-29T00:07:13;98014.44;;;6.42;83.37
44697;BME280;57264;47.480;19.354;2024-03-29T00:09:38;98039.31;;;6.43;83.20
44697;BME280;57264;47.480;19.354;2024-03-29T00:12:04;98053.78;;;6.47;83.49
44697;BME280;57264;47.480;19.354;2024-03-29T00:14:31;98081.28;;;6.48;83.07
44697;BME280;57264;47.480;19.354;2024-03-29T00:16:56;98083.00;;;6.47;83.00
44697;BME280;57264;47.480;19.354;2024-03-29T00:19:22;98091.41;;;6.52;82.55
44697;BME280;57264;47.480;19.354;2024-03-29T00:21:47;98111.06;;;6.56;82.48
44697;BME280;57264;47.480;19.354;2024-03-29T00:24:12;98127.28;;;6.60;82.55
44697;BME280;57264;47.480;19.354;2024-03-29T00:26:38;98152.03;;;6.65;81.78
44697;BME280;57264;47.480;19.354;2024-03-29T00:29:03;98167.47;;;6.67;81.29
44697;BME280;57264;47.480;19.354;2024-03-29T00:31:28;98175.84;;;6.74;81.09
44697;BME280;57264;47.480;19.354;2024-03-29T00:33:53;98179.28;;;6.74;80.55
44697;BME280;57264;47.480;19.354;2024-03-29T00:36:19;98199.94;;;6.73;80.78
44697;BME280;57264;47.480;19.354;2024-03-29T00:38:44;98196.50;;;6.74;80.47
44697;BME280;57264;47.480;19.354;2024-03-29T00:41:09;98206.81;;;6.74;81.02
44697;BME280;57264;47.480;19.354;2024-03-29T00:43:35;98205.28;;;6.68;81.38
44697;BME280;57264;47.480;19.354;2024-03-29T00:46:00;98208.91;;;6.62;80.85
44697;BME280;57264;47.480;19.354;2024-03-29T00:48:25;98209.09;;;6.56;81.71
44697;BME280;57264;47.480;19.354;2024-03-29T00:50:51;98221.84;;;6.61;79.76
44697;BME280;57264;47.480;19.354;2024-03-29T00:53:16;98216.91;;;6.55;79.87
44697;BME280;57264;47.480;19.354;2024-03-29T00:55:41;98217.84;;;6.52;80.25
44697;BME280;57264;47.480;19.354;2024-03-29T00:58:06;98220.66;;;6.46;79.69
44697;BME280;57264;47.480;19.354;2024-03-29T01:00:32;98226.91;;;6.39;79.45
44697;BME280;57264;47.480;19.354;2024-03-29T01:02:57;98229.56;;;6.36;79.92
44697;BME280;57264;47.480;19.354;2024-03-29T01:05:23;98232.34;;;6.30;80.31
44697;BME280;57264;47.480;19.354;2024-03-29T01:07:48;98237.78;;;6.21;80.24
44697;BME280;57264;47.480;19.354;2024-03-29T01:10:13;98233.69;;;6.15;80.51
44697;BME280;57264;47.480;19.354;2024-03-29T01:12:39;98239.16;;;6.04;80.57
44697;BME280;57264;47.480;19.354;2024-03-29T01:15:04;98222.31;;;5.94;81.60
44697;BME280;57264;47.480;19.354;2024-03-29T01:17:30;98224.34;;;5.83;81.95
44697;BME280;57264;47.480;19.354;2024-03-29T01:19:55;98233.00;;;5.80;81.48
44697;BME280;57264;47.480;19.354;2024-03-29T01:22:20;98235.03;;;5.69;82.36
44697;BME280;57264;47.480;19.354;2024-03-29T01:24:46;98247.44;;;5.56;83.03
44697;BME280;57264;47.480;19.354;2024-03-29T01:27:11;98247.84;;;5.42;82.99
44697;BME280;57264;47.480;19.354;2024-03-29T01:29:36;98263.63;;;5.30;83.19
44697;BME280;57264;47.480;19.354;2024-03-29T01:32:02;98269.09;;;5.18;84.36
44697;BME280;57264;47.480;19.354;2024-03-29T01:34:28;98269.28;;;5.12;84.39
44697;BME280;57264;47.480;19.354;2024-03-29T01:36:53;98259.19;;;5.04;84.88
44697;BME280;57264;47.480;19.354;2024-03-29T01:39:19;98260.16;;;5.00;84.20
44697;BME280;57264;47.480;19.354;2024-03-29T01:41:46;98277.59;;;4.89;84.46
44697;BME280;57264;47.480;19.354;2024-03-29T01:44:11;98288.03;;;4.84;84.61
44697;BME280;57264;47.480;19.354;2024-03-29T01:46:37;98295.63;;;4.89;84.88
44697;BME280;57264;47.480;19.354;2024-03-29T01:49:03;98302.56;;;4.85;84.55
44697;BME280;57264;47.480;19.354;2024-03-29T01:51:29;98298.38;;;4.81;85.03
44697;BME280;57264;47.480;19.354;2024-03-29T01:53:55;98303.34;;;4.89;84.02
44697;BME280;57264;47.480;19.354;2024-03-29T01:56:21;98311.78;;;4.94;83.95
44697;BME280;57264;47.480;19.354;2024-03-29T01:58:47;98306.38;;;5.05;83.52
44697;BME280;57264;47.480;19.354;2024-03-29T02:01:15;98323.56;;;5.03;82.92
44697;BME280;57264;47.480;19.354;2024-03-29T02:03:41;98328.94;;;4.95;83.02
44697;BME280;57264;47.480;19.354;2024-03-29T02:06:06;98332.31;;;4.97;82.95
44697;BME280;57264;47.480;19.354;2024-03-29T02:08:32;98333.13;;;4.99;82.84
44697;BME280;57264;47.480;19.354;2024-03-29T02:10:58;98335.69;;;4.99;82.97
44697;BME280;57264;47.480;19.354;2024-03-29T02:13:24;98345.25;;;4.94;82.85
44697;BME280;57264;47.480;19.354;2024-03-29T02:15:50;98357.84;;;5.05;82.43
44697;BME280;57264;47.480;19.354;2024-03-29T02:18:15;98369.94;;;5.01;82.90
44697;BME280;57264;47.480;19.354;2024-03-29T02:20:40;98386.53;;;4.89;82.77
44697;BME280;57264;47.480;19.354;2024-03-29T02:23:06;98401.47;;;4.74;82.82
44697;BME280;57264;47.480;19.354;2024-03-29T02:25:33;98402.75;;;4.56;83.33
44697;BME280;57264;47.480;19.354;2024-03-29T02:27:58;98404.78;;;4.41;84.23
44697;BME280;57264;47.480;19.354;2024-03-29T02:30:25;98421.28;;;4.31;84.60
44697;BME280;57264;47.480;19.354;2024-03-29T02:32:50;98430.13;;;4.18;85.49
44697;BME280;57264;47.480;19.354;2024-03-29T02:35:15;98439.78;;;4.07;85.32
44697;BME280;57264;47.480;19.354;2024-03-29T02:37:41;98440.00;;;3.94;85.44
44697;BME280;57264;47.480;19.354;2024-03-29T02:40:06;98445.38;;;3.82;85.87
44697;BME280;57264;47.480;19.354;2024-03-29T02:42:33;98445.63;;;3.70;86.35
44697;BME280;57264;47.480;19.354;2024-03-29T02:44:59;98448.41;;;3.56;86.60
44697;BME280;57264;47.480;19.354;2024-03-29T02:47:24;98458.91;;;3.44;86.67
44697;BME280;57264;47.480;19.354;2024-03-29T02:49:50;98458.22;;;3.34;87.21
44697;BME280;57264;47.480;19.354;2024-03-29T02:52:15;98454.84;;;3.31;87.50
44697;BME280;57264;47.480;19.354;2024-03-29T02:54:41;98459.19;;;3.27;87.61
44697;BME280;57264;47.480;19.354;2024-03-29T02:57:06;98461.84;;;3.23;87.49
44697;BME280;57264;47.480;19.354;2024-03-29T02:59:32;98469.56;;;3.19;87.74
44697;BME280;57264;47.480;19.354;2024-03-29T03:01:57;98472.25;;;3.12;88.24
44697;BME280;57264;47.480;19.354;2024-03-29T03:04:22;98474.06;;;3.07;88.58
44697;BME280;57264;47.480;19.354;2024-03-29T03:06:48;98478.44;;;3.00;88.41
44697;BME280;57264;47.480;19.354;2024-03-29T03:09:13;98483.75;;;2.88;88.53
44697;BME280;57264;47.480;19.354;2024-03-29T03:11:57;98487.25;;;2.81;89.10
44697;BME280;57264;47.480;19.354;2024-03-29T03:14:23;98501.00;;;2.77;88.83
44697;BME280;57264;47.480;19.354;2024-03-29T03:16:48;98492.59;;;2.67;89.04
44697;BME280;57264;47.480;19.354;2024-03-29T03:19:13;98499.53;;;2.59;89.21
44697;BME280;57264;47.480;19.354;2024-03-29T03:21:39;98495.31;;;2.53;89.67
44697;BME280;57264;47.480;19.354;2024-03-29T03:24:04;98500.50;;;2.49;89.80
44697;BME280;57264;47.480;19.354;2024-03-29T03:26:30;98515.09;;;2.43;89.71
44697;BME280;57264;47.480;19.354;2024-03-29T03:28:55;98511.69;;;2.41;89.55
44697;BME280;57264;47.480;19.354;2024-03-29T03:31:20;98515.16;;;2.39;90.29
44697;BME280;57264;47.480;19.354;2024-03-29T03:33:46;98519.47;;;2.35;90.10
44697;BME280;57264;47.480;19.354;2024-03-29T03:36:11;98521.16;;;2.38;90.66
44697;BME280;57264;47.480;19.354;2024-03-29T03:38:36;98521.94;;;2.41;90.57
44697;BME280;57264;47.480;19.354;2024-03-29T03:41:03;98527.03;;;2.46;91.17
44697;BME280;57264;47.480;19.354;2024-03-29T03:43:29;98517.47;;;2.59;91.25
44697;BME280;57264;47.480;19.354;2024-03-29T03:45:59;98516.28;;;2.86;91.34
44697;BME280;57264;47.480;19.354;2024-03-29T03:48:25;98505.94;;;2.90;91.35
44697;BME280;57264;47.480;19.354;2024-03-29T03:50:50;98504.44;;;2.76;91.32
44697;BME280;57264;47.480;19.354;2024-03-29T03:53:15;98519.22;;;2.55;91.20
44697;BME280;57264;47.480;19.354;2024-03-29T03:55:41;98520.25;;;2.40;91.08
44697;BME280;57264;47.480;19.354;2024-03-29T03:58:06;98529.75;;;2.32;91.29
44697;BME280;57264;47.480;19.354;2024-03-29T04:00:31;98528.16;;;2.24;91.40
44697;BME280;57264;47.480;19.354;2024-03-29T04:02:57;98525.63;;;2.17;91.30
44697;BME280;57264;47.480;19.354;2024-03-29T04:05:22;98527.38;;;2.15;91.20
44697;BME280;57264;47.480;19.354;2024-03-29T04:07:48;98523.94;;;2.16;91.50
44697;BME280;57264;47.480;19.354;2024-03-29T04:10:13;98540.09;;;2.21;91.41
44697;BME280;57264;47.480;19.354;2024-03-29T04:12:38;98546.09;;;2.24;91.47
44697;BME280;57264;47.480;19.354;2024-03-29T04:15:04;98554.63;;;2.21;91.64
44697;BME280;57264;47.480;19.354;2024-03-29T04:17:30;98558.84;;;2.28;91.91
44697;BME280;57264;47.480;19.354;2024-03-29T04:19:56;98575.88;;;2.32;92.12
44697;BME280;57264;47.480;19.354;2024-03-29T04:22:21;98586.84;;;2.45;92.14
44697;BME280;57264;47.480;19.354;2024-03-29T04:24:47;98583.28;;;2.58;92.37
44697;BME280;57264;47.480;19.354;2024-03-29T04:27:12;98595.22;;;2.59;92.31
44697;BME280;57264;47.480;19.354;2024-03-29T04:29:37;98606.34;;;2.61;92.58
44697;BME280;57264;47.480;19.354;2024-03-29T04:32:03;98603.81;;;2.58;92.93
44697;BME280;57264;47.480;19.354;2024-03-29T04:34:28;98604.66;;;2.59;92.79
44697;BME280;57264;47.480;19.354;2024-03-29T04:36:53;98605.47;;;2.62;92.85
44697;BME280;57264;47.480;19.354;2024-03-29T04:39:19;98598.59;;;2.64;92.95
44697;BME280;57264;47.480;19.354;2024-03-29T04:41:44;98600.25;;;2.68;93.07
44697;BME280;57264;47.480;19.354;2024-03-29T04:44:11;98606.25;;;2.67;93.09
44697;BME280;57264;47.480;19.354;2024-03-29T04:46:37;98608.75;;;2.72;92.95
44697;BME280;57264;47.480;19.354;2024-03-29T04:49:02;98612.09;;;2.79;93.40
44697;BME280;57264;47.480;19.354;2024-03-29T04:51:27;98616.38;;;2.81;93.45
44697;BME280;57264;47.480;19.354;2024-03-29T04:53:52;98616.31;;;2.86;93.27
44697;BME280;57264;47.480;19.354;2024-03-29T04:56:18;98629.09;;;2.87;93.39
44697;BME280;57264;47.480;19.354;2024-03-29T04:58:43;98638.47;;;2.90;93.79
44697;BME280;57264;47.480;19.354;2024-03-29T05:01:11;98650.47;;;2.89;93.52
44697;BME280;57264;47.480;19.354;2024-03-29T05:03:36;98651.31;;;2.90;93.57
44697;BME280;57264;47.480;19.354;2024-03-29T05:06:01;98653.88;;;2.90;93.82
44697;BME280;57264;47.480;19.354;2024-03-29T05:08:27;98651.31;;;2.90;93.78
44697;BME280;57264;47.480;19.354;2024-03-29T05:10:52;98642.66;;;2.99;93.97
44697;BME280;57264;47.480;19.354;2024-03-29T05:13:18;98650.97;;;3.17;94.28
44697;BME280;57264;47.480;19.354;2024-03-29T05:15:45;98656.50;;;3.50;93.92
44697;BME280;57264;47.480;19.354;2024-03-29T05:18:10;98660.22;;;3.89;93.94
44697;BME280;57264;47.480;19.354;2024-03-29T05:20:36;98652.88;;;4.21;93.88
44697;BME280;57264;47.480;19.354;2024-03-29T05:23:01;98670.22;;;4.57;93.23
44697;BME280;57264;47.480;19.354;2024-03-29T05:25:27;98657.72;;;4.82;92.00
44697;BME280;57264;47.480;19.354;2024-03-29T05:27:52;98674.22;;;5.17;91.42
44697;BME280;57264;47.480;19.354;2024-03-29T05:30:17;98686.47;;;5.48;90.06
44697;BME280;57264;47.480;19.354;2024-03-29T05:32:43;98673.94;;;5.71;88.43
44697;BME280;57264;47.480;19.354;2024-03-29T05:35:09;98669.81;;;6.01;86.61
44697;BME280;57264;47.480;19.354;2024-03-29T05:37:35;98672.69;;;6.25;84.86
44697;BME280;57264;47.480;19.354;2024-03-29T05:40:00;98680.47;;;6.57;83.70
44697;BME280;57264;47.480;19.354;2024-03-29T05:42:26;98669.56;;;6.79;81.75
44697;BME280;57264;47.480;19.354;2024-03-29T05:44:52;98672.19;;;7.08;81.31
44697;BME280;57264;47.480;19.354;2024-03-29T05:47:17;98670.53;;;7.37;80.54
44697;BME280;57264;47.480;19.354;2024-03-29T05:49:42;98682.44;;;7.71;78.46
44697;BME280;57264;47.480;19.354;2024-03-29T05:52:08;98690.34;;;7.94;77.24
44697;BME280;57264;47.480;19.354;2024-03-29T05:54:33;98690.63;;;8.11;75.95
44697;BME280;57264;47.480;19.354;2024-03-29T05:56:58;98692.91;;;8.22;75.98
44697;BME280;57264;47.480;19.354;2024-03-29T05:59:24;98698.84;;;8.52;75.17
44697;BME280;57264;47.480;19.354;2024-03-29T06:01:49;98698.78;;;8.79;73.97
44697;BME280;57264;47.480;19.354;2024-03-29T06:04:14;98689.03;;;9.10;72.42
44697;BME280;57264;47.480;19.354;2024-03-29T06:06:44;98696.00;;;9.33;71.79
44697;BME280;57264;47.480;19.354;2024-03-29T06:09:09;98697.34;;;9.44;70.70
44697;BME280;57264;47.480;19.354;2024-03-29T06:11:35;98698.38;;;9.63;70.95
44697;BME280;57264;47.480;19.354;2024-03-29T06:14:00;98699.50;;;9.78;69.53
44697;BME280;57264;47.480;19.354;2024-03-29T06:16:26;98714.00;;;10.05;68.63
44697;BME280;57264;47.480;19.354;2024-03-29T06:19:10;98705.69;;;10.41;67.48
44697;BME280;57264;47.480;19.354;2024-03-29T06:21:36;98705.25;;;10.52;67.20
44697;BME280;57264;47.480;19.354;2024-03-29T06:24:07;98709.72;;;10.48;67.00
44697;BME280;57264;47.480;19.354;2024-03-29T06:26:34;98704.28;;;10.54;66.57
44697;BME280;57264;47.480;19.354;2024-03-29T06:29:00;98711.44;;;10.70;67.39
44697;BME280;57264;47.480;19.354;2024-03-29T06:31:25;98711.16;;;10.76;66.47
44697;BME280;57264;47.480;19.354;2024-03-29T06:33:50;98717.22;;;11.36;64.74
44697;BME280;57264;47.480;19.354;2024-03-29T06:36:16;98718.47;;;11.86;62.34
44697;BME280;57264;47.480;19.354;2024-03-29T06:38:41;98731.53;;;12.03;62.44
44697;BME280;57264;47.480;19.354;2024-03-29T06:41:06;98733.66;;;12.31;60.96
44697;BME280;57264;47.480;19.354;2024-03-29T06:43:32;98734.38;;;12.35;61.08
44697;BME280;57264;47.480;19.354;2024-03-29T06:45:57;98732.72;;;12.68;61.20
44697;BME280;57264;47.480;19.354;2024-03-29T06:48:24;98728.94;;;13.09;59.73
44697;BME280;57264;47.480;19.354;2024-03-29T06:50:49;98723.63;;;13.61;57.81
44697;BME280;57264;47.480;19.354;2024-03-29T06:53:14;98738.00;;;13.36;59.17
44697;BME280;57264;47.480;19.354;2024-03-29T06:55:40;98735.13;;;13.74;57.23
44697;BME280;57264;47.480;19.354;2024-03-29T06:58:06;98734.88;;;13.45;56.18
44697;BME280;57264;47.480;19.354;2024-03-29T07:00:32;98722.44;;;13.50;56.88
44697;BME280;57264;47.480;19.354;2024-03-29T07:02:57;98726.41;;;13.58;58.55
44697;BME280;57264;47.480;19.354;2024-03-29T07:05:23;98725.69;;;13.87;57.90
44697;BME280;57264;47.480;19.354;2024-03-29T07:07:48;98719.53;;;13.72;57.89
44697;BME280;57264;47.480;19.354;2024-03-29T07:10:13;98733.69;;;13.84;56.17
44697;BME280;57264;47.480;19.354;2024-03-29T07:12:39;98737.38;;;13.64;56.65
44697;BME280;57264;47.480;19.354;2024-03-29T07:15:04;98736.09;;;12.70;59.50
44697;BME280;57264;47.480;19.354;2024-03-29T07:17:30;98751.47;;;12.04;61.41
44697;BME280;57264;47.480;19.354;2024-03-29T07:19:56;98744.25;;;11.52;62.59
44697;BME280;57264;47.480;19.354;2024-03-29T07:22:21;98756.75;;;11.24;64.51
44697;BME280;57264;47.480;19.354;2024-03-29T07:24:46;98764.38;;;11.08;65.69
44697;BME280;57264;47.480;19.354;2024-03-29T07:27:12;98765.91;;;10.93;66.26
44697;BME280;57264;47.480;19.354;2024-03-29T07:29:39;98774.72;;;10.89;67.01
44697;BME280;57264;47.480;19.354;2024-03-29T07:32:05;98782.13;;;10.98;66.17
44697;BME280;57264;47.480;19.354;2024-03-29T07:34:30;98785.81;;;10.93;65.87
44697;BME280;57264;47.480;19.354;2024-03-29T07:36:56;98786.09;;;10.87;66.97
44697;BME280;57264;47.480;19.354;2024-03-29T07:39:21;98778.94;;;10.92;68.04
44697;BME280;57264;47.480;19.354;2024-03-29T07:41:47;98789.81;;;11.01;66.96
44697;BME280;57264;47.480;19.354;2024-03-29T07:44:13;98786.09;;;11.07;66.74
44697;BME280;57264;47.480;19.354;2024-03-29T07:46:38;98793.66;;;11.13;67.27
44697;BME280;57264;47.480;19.354;2024-03-29T07:49:05;98794.16;;;11.21;66.65
44697;BME280;57264;47.480;19.354;2024-03-29T07:51:30;98791.28;;;11.07;65.79
44697;BME280;57264;47.480;19.354;2024-03-29T07:53:56;98796.91;;;11.18;66.17
44697;BME280;57264;47.480;19.354;2024-03-29T07:56:21;98794.41;;;11.36;66.48
44697;BME280;57264;47.480;19.354;2024-03-29T07:58:51;98784.47;;;11.45;64.64
44697;BME280;57264;47.480;19.354;2024-03-29T08:01:20;98785.59;;;11.58;64.88
44697;BME280;57264;47.480;19.354;2024-03-29T08:03:45;98790.59;;;11.63;63.40
44697;BME280;57264;47.480;19.354;2024-03-29T08:06:11;98784.91;;;11.74;62.83
44697;BME280;57264;47.480;19.354;2024-03-29T08:08:36;98782.09;;;11.78;61.62
44697;BME280;57264;47.480;19.354;2024-03-29T08:11:02;98778.56;;;11.79;61.30
44697;BME280;57264;47.480;19.354;2024-03-29T08:13:28;98781.78;;;11.86;61.39
44697;BME280;57264;47.480;19.354;2024-03-29T08:15:59;98791.63;;;11.98;63.43
44697;BME280;57264;47.480;19.354;2024-03-29T08:18:26;98791.59;;;12.00;61.77
44697;BME280;57264;47.480;19.354;2024-03-29T08:20:51;98798.88;;;12.11;63.44
44697;BME280;57264;47.480;19.354;2024-03-29T08:23:17;98796.72;;;12.20;63.46
44697;BME280;57264;47.480;19.354;2024-03-29T08:25:42;98795.91;;;12.37;61.80
44697;BME280;57264;47.480;19.354;2024-03-29T08:28:07;98797.19;;;12.47;62.45
44697;BME280;57264;47.480;19.354;2024-03-29T08:30:33;98793.66;;;12.66;61.16
44697;BME280;57264;47.480;19.354;2024-03-29T08:33:02;98799.34;;;12.74;60.13
44697;BME280;57264;47.480;19.354;2024-03-29T08:35:31;98793.31;;;12.91;59.41
44697;BME280;57264;47.480;19.354;2024-03-29T08:37:59;98786.25;;;12.93;60.34
44697;BME280;57264;47.480;19.354;2024-03-29T08:40:27;98784.31;;;13.14;58.60
44697;BME280;57264;47.480;19.354;2024-03-29T08:42:54;98781.81;;;13.29;57.48
44697;BME280;57264;47.480;19.354;2024-03-29T08:45:19;98773.63;;;13.53;57.48
44697;BME280;57264;47.480;19.354;2024-03-29T08:47:48;98774.09;;;13.77;57.71
44697;BME280;57264;47.480;19.354;2024-03-29T08:50:18;98776.06;;;13.89;56.61
44697;BME280;57264;47.480;19.354;2024-03-29T08:52:46;98781.88;;;13.94;54.67
44697;BME280;57264;47.480;19.354;2024-03-29T08:55:12;98787.97;;;13.95;56.23
44697;BME280;57264;47.480;19.354;2024-03-29T08:57:39;98781.88;;;13.94;52.80
44697;BME280;57264;47.480;19.354;2024-03-29T09:00:04;98774.13;;;13.93;52.47
44697;BME280;57264;47.480;19.354;2024-03-29T09:02:30;98770.78;;;14.07;51.30
44697;BME280;57264;47.480;19.354;2024-03-29T09:04:55;98767.22;;;14.08;53.11
44697;BME280;57264;47.480;19.354;2024-03-29T09:07:21;98777.84;;;14.20;50.34
44697;BME280;57264;47.480;19.354;2024-03-29T09:09:48;98770.81;;;14.37;51.17
44697;BME280;57264;47.480;19.354;2024-03-29T09:12:14;98764.72;;;14.54;51.14
44697;BME280;57264;47.480;19.354;2024-03-29T09:14:39;98758.69;;;14.67;49.64
44697;BME280;57264;47.480;19.354;2024-03-29T09:17:04;98761.19;;;14.99;47.75
44697;BME280;57264;47.480;19.354;2024-03-29T09:19:31;98754.47;;;14.95;48.24
44697;BME280;57264;47.480;19.354;2024-03-29T09:21:56;98742.72;;;15.02;47.52
44697;BME280;57264;47.480;19.354;2024-03-29T09:24:22;98745.16;;;14.75;45.64
44697;BME280;57264;47.480;19.354;2024-03-29T09:26:50;98750.28;;;15.07;46.40
44697;BME280;57264;47.480;19.354;2024-03-29T09:29:16;98748.16;;;15.28;46.57
44697;BME280;57264;47.480;19.354;2024-03-29T09:31:43;98750.22;;;15.51;45.56
44697;BME280;57264;47.480;19.354;2024-03-29T09:34:08;98742.66;;;15.61;44.62
44697;BME280;57264;47.480;19.354;2024-03-29T09:36:34;98737.69;;;15.42;45.53
44697;BME280;57264;47.480;19.354;2024-03-29T09:38:59;98746.03;;;15.48;45.32
44697;BME280;57264;47.480;19.354;2024-03-29T09:41:25;98742.88;;;15.72;44.64
44697;BME280;57264;47.480;19.354;2024-03-29T09:43:52;98733.56;;;15.95;44.48
44697;BME280;57264;47.480;19.354;2024-03-29T09:46:19;98731.38;;;16.16;45.78
44697;BME280;57264;47.480;19.354;2024-03-29T09:48:46;98749.22;;;16.23;42.70
44697;BME280;57264;47.480;19.354;2024-03-29T09:51:12;98757.69;;;16.41;44.44
44697;BME280;57264;47.480;19.354;2024-03-29T09:53:42;98757.16;;;16.63;42.58
44697;BME280;57264;47.480;19.354;2024-03-29T09:56:08;98752.41;;;16.83;41.66
44697;BME280;57264;47.480;19.354;2024-03-29T09:58:34;98744.94;;;16.89;42.46
44697;BME280;57264;47.480;19.354;2024-03-29T10:01:03;98730.47;;;17.22;42.27
44697;BME280;57264;47.480;19.354;2024-03-29T10:03:29;98729.22;;;17.15;41.18
44697;BME280;57264;47.480;19.354;2024-03-29T10:05:58;98710.81;;;16.50;43.06
44697;BME280;57264;47.480;19.354;2024-03-29T10:08:29;98706.53;;;16.48;42.63
44697;BME280;57264;47.480;19.354;2024-03-29T10:10:57;98713.78;;;16.31;44.33
44697;BME280;57264;47.480;19.354;2024-03-29T10:13:22;98715.91;;;16.38;44.13
44697;BME280;57264;47.480;19.354;2024-03-29T10:15:55;98709.97;;;16.49;43.31
44697;BME280;57264;47.480;19.354;2024-03-29T10:18:30;98710.25;;;16.71;42.51
44697;BME280;57264;47.480;19.354;2024-03-29T10:21:02;98707.25;;;16.90;42.54
44697;BME280;57264;47.480;19.354;2024-03-29T10:23:28;98706.63;;;17.00;41.95
44697;BME280;57264;47.480;19.354;2024-03-29T10:25:53;98704.53;;;17.17;41.67
44697;BME280;57264;47.480;19.354;2024-03-29T10:28:19;98701.19;;;17.15;41.94
44697;BME280;57264;47.480;19.354;2024-03-29T10:30:44;98707.88;;;16.94;43.02
44697;BME280;57264;47.480;19.354;2024-03-29T10:33:10;98699.38;;;16.90;42.01
44697;BME280;57264;47.480;19.354;2024-03-29T10:35:35;98702.44;;;16.84;42.78
44697;BME280;57264;47.480;19.354;2024-03-29T10:38:04;98700.31;;;16.89;44.56
44697;BME280;57264;47.480;19.354;2024-03-29T10:40:29;98701.72;;;17.08;43.88
44697;BME280;57264;47.480;19.354;2024-03-29T10:42:55;98694.25;;;17.27;42.93
44697;BME280;57264;47.480;19.354;2024-03-29T10:45:21;98697.72;;;17.28;43.03
44697;BME280;57264;47.480;19.354;2024-03-29T10:47:47;98699.59;;;17.38;42.85
44697;BME280;57264;47.480;19.354;2024-03-29T10:50:14;98698.53;;;17.41;42.03
44697;BME280;57264;47.480;19.354;2024-03-29T10:52:40;98695.88;;;17.54;43.66
44697;BME280;57264;47.480;19.354;2024-03-29T10:55:08;98686.00;;;17.57;43.95
44697;BME280;57264;47.480;19.354;2024-03-29T10:57:34;98693.59;;;17.49;42.32
44697;BME280;57264;47.480;19.354;2024-03-29T11:00:05;98681.78;;;17.67;44.04
44697;BME280;57264;47.480;19.354;2024-03-29T11:05:00;98671.28;;;18.04;43.40
44697;BME280;57264;47.480;19.354;2024-03-29T11:07:31;98668.28;;;17.98;44.08
44697;BME280;57264;47.480;19.354;2024-03-29T11:09:58;98660.66;;;18.30;43.17
44697;BME280;57264;47.480;19.354;2024-03-29T11:12:25;98663.97;;;18.56;44.10
44697;BME280;57264;47.480;19.354;2024-03-29T11:14:57;98649.34;;;18.87;43.96
44697;BME280;57264;47.480;19.354;2024-03-29T11:17:25;98645.91;;;19.09;44.37
44697;BME280;57264;47.480;19.354;2024-03-29T11:19:50;98637.66;;;19.13;43.44
44697;BME280;57264;47.480;19.354;2024-03-29T11:22:16;98638.72;;;19.22;42.30
44697;BME280;57264;47.480;19.354;2024-03-29T11:24:41;98639.91;;;19.07;44.44
44697;BME280;57264;47.480;19.354;2024-03-29T11:27:10;98626.97;;;18.92;43.58
44697;BME280;57264;47.480;19.354;2024-03-29T11:29:35;98622.44;;;19.06;45.34
44697;BME280;57264;47.480;19.354;2024-03-29T11:32:05;98628.41;;;19.19;44.97
44697;BME280;57264;47.480;19.354;2024-03-29T11:34:31;98626.63;;;19.42;45.28
44697;BME280;57264;47.480;19.354;2024-03-29T11:37:06;98611.66;;;19.20;43.23
44697;BME280;57264;47.480;19.354;2024-03-29T11:39:33;98621.25;;;19.10;45.70
44697;BME280;57264;47.480;19.354;2024-03-29T11:41:58;98605.31;;;18.89;45.03
44697;BME280;57264;47.480;19.354;2024-03-29T11:44:26;98604.47;;;18.77;45.58
44697;BME280;57264;47.480;19.354;2024-03-29T11:46:51;98604.47;;;18.77;47.07
44697;BME280;57264;47.480;19.354;2024-03-29T11:49:23;98603.81;;;18.62;47.35
44697;BME280;57264;47.480;19.354;2024-03-29T11:51:48;98596.84;;;18.50;48.10
44697;BME280;57264;47.480;19.354;2024-03-29T11:54:13;98591.50;;;18.63;48.37
44697;BME280;57264;47.480;19.354;2024-03-29T11:56:39;98593.16;;;18.64;48.75
44697;BME280;57264;47.480;19.354;2024-03-29T11:59:04;98590.13;;;18.81;48.59
44697;BME280;57264;47.480;19.354;2024-03-29T12:01:30;98588.78;;;18.87;50.05
44697;BME280;57264;47.480;19.354;2024-03-29T12:03:57;98586.06;;;18.77;49.05
44697;BME280;57264;47.480;19.354;2024-03-29T12:06:22;98587.97;;;18.86;49.05
44697;BME280;57264;47.480;19.354;2024-03-29T12:08:48;98583.91;;;18.94;47.71
44697;BME280;57264;47.480;19.354;2024-03-29T12:11:14;98572.97;;;18.76;48.27
44697;BME280;57264;47.480;19.354;2024-03-29T12:13:39;98573.03;;;18.52;48.92
44697;BME280;57264;47.480;19.354;2024-03-29T12:16:06;98571.44;;;18.73;49.70
44697;BME280;57264;47.480;19.354;2024-03-29T12:18:32;98573.84;;;19.10;50.03
44697;BME280;57264;47.480;19.354;2024-03-29T12:20:57;98573.66;;;19.56;48.07
44697;BME280;57264;47.480;19.354;2024-03-29T12:23:23;98580.00;;;19.65;47.01
44697;BME280;57264;47.480;19.354;2024-03-29T12:25:49;98581.69;;;19.44;46.28
44697;BME280;57264;47.480;19.354;2024-03-29T12:28:15;98590.84;;;19.17;46.84
44697;BME280;57264;47.480;19.354;2024-03-29T12:30:45;98583.91;;;19.05;48.52
44697;BME280;57264;47.480;19.354;2024-03-29T12:33:14;98586.63;;;18.92;48.31
44697;BME280;57264;47.480;19.354;2024-03-29T12:35:43;98589.38;;;18.79;49.38
44697;BME280;57264;47.480;19.354;2024-03-29T12:38:10;98582.84;;;18.61;49.18
44697;BME280;57264;47.480;19.354;2024-03-29T12:40:37;98591.25;;;18.66;50.29
44697;BME280;57264;47.480;19.354;2024-03-29T12:43:05;98577.38;;;18.64;49.19
44697;BME280;57264;47.480;19.354;2024-03-29T12:45:31;98574.72;;;18.64;50.54
44697;BME280;57264;47.480;19.354;2024-03-29T12:47:57;98580.94;;;18.52;51.44
44697;BME280;57264;47.480;19.354;2024-03-29T12:52:47;98579.28;;;18.15;50.50
44697;BME280;57264;47.480;19.354;2024-03-29T12:55:13;98575.81;;;18.15;52.39